Time;durP1;ratioP1;P1;durP2;ratioP2;P2;SDS_P1;SDS_P2;PMS_P1;PMS_P2;Temp;Humidity;BMP_temperature;BMP_pressure;BME280_temperature;BME280_humidity;BME280_pressure;Samples;Min_cycle;Max_cycle;Signal;HPM_P1;HPM_P2
2021/07/27 00:02:02;;;;;;;26.87;15.90;;;;;;;19.23;81.45;100522.67;1686893;83;21023;-80
2021/07/27 00:04:29;;;;;;;31.40;16.35;;;;;;;19.23;81.69;100525.80;1715249;83;20979;-82
2021/07/27 00:06:58;;;;;;;22.82;15.05;;;;;;;19.26;81.81;100524.28;1715708;82;21078;-79
2021/07/27 00:09:26;;;;;;;25.55;16.30;;;;;;;19.26;80.46;100512.27;1715789;83;21082;-80
2021/07/27 00:11:53;;;;;;;24.15;15.85;;;;;;;19.27;81.15;100509.95;1715843;82;21085;-83
2021/07/27 00:14:21;;;;;;;23.80;14.75;;;;;;;19.26;81.25;100513.59;1715701;82;21102;-80
2021/07/27 00:16:47;;;;;;;21.87;15.25;;;;;;;19.26;81.54;100508.27;1715764;83;21061;-80
2021/07/27 00:19:14;;;;;;;24.98;16.17;;;;;;;19.25;81.94;100507.86;1715945;83;21061;-79
2021/07/27 00:21:42;;;;;;;23.35;14.90;;;;;;;19.22;81.76;100509.42;1716067;83;21137;-79
2021/07/27 00:24:10;;;;;;;21.95;12.90;;;;;;;19.19;81.77;100514.97;1716100;82;21089;-80
2021/07/27 00:26:38;;;;;;;17.05;11.80;;;;;;;19.19;81.44;100518.49;1716660;82;21061;-79
2021/07/27 00:29:05;;;;;;;14.68;10.55;;;;;;;19.19;81.48;100516.31;1715919;83;21453;-81
2021/07/27 00:31:33;;;;;;;16.75;11.75;;;;;;;19.19;81.55;100515.82;1716390;82;20974;-80
2021/07/27 00:34:01;;;;;;;19.57;10.98;;;;;;;19.20;81.58;100519.34;1716379;83;21146;-80
2021/07/27 00:36:28;;;;;;;23.05;15.35;;;;;;;19.17;81.19;100512.39;1715231;83;21021;-82
2021/07/27 00:38:56;;;;;;;24.90;17.17;;;;;;;19.15;81.67;100513.46;1700462;84;21052;-81
2021/07/27 00:41:22;;;;;;;32.95;16.40;;;;;;;19.13;81.93;100505.55;1700403;84;20922;-80
2021/07/27 00:43:51;;;;;;;21.30;16.07;;;;;;;19.07;82.55;100498.81;1701275;81;21042;-85
2021/07/27 00:46:18;;;;;;;24.50;16.52;;;;;;;19.00;82.90;100500.18;1701027;84;21099;-80
2021/07/27 00:48:45;;;;;;;21.00;15.58;;;;;;;18.95;82.97;100499.61;1700594;84;21068;-81
2021/07/27 00:51:12;;;;;;;25.02;16.65;;;;;;;18.93;83.51;100496.66;1700427;84;21036;-81
2021/07/27 00:53:39;;;;;;;23.92;16.85;;;;;;;18.91;83.48;100503.45;1684904;84;21014;-82
2021/07/27 00:56:08;;;;;;;26.52;16.73;;;;;;;18.88;83.93;100499.64;1700288;84;21081;-80
2021/07/27 00:58:35;;;;;;;31.20;18.73;;;;;;;18.88;84.08;100503.64;1700188;84;21052;-78
2021/07/27 01:01:01;;;;;;;24.70;17.27;;;;;;;18.87;83.99;100492.60;1699159;84;21066;-81
2021/07/27 01:03:29;;;;;;;27.48;17.15;;;;;;;18.86;84.25;100496.21;1697494;84;21053;-83
2021/07/27 01:05:56;;;;;;;26.87;17.27;;;;;;;18.85;83.92;100495.84;1696408;83;21061;-82
2021/07/27 01:08:22;;;;;;;28.27;16.07;;;;;;;18.87;84.30;100505.95;1696902;84;21594;-83
2021/07/27 01:10:49;;;;;;;32.88;16.80;;;;;;;18.85;84.49;100496.70;1696632;84;21545;-83
2021/07/27 01:13:18;;;;;;;18.67;11.43;;;;;;;18.85;84.88;100495.84;1695567;84;21033;-85
2021/07/27 01:15:45;;;;;;;24.23;14.13;;;;;;;18.84;84.72;100502.13;1661887;84;21633;-84
2021/07/27 01:18:20;;;;;;;16.32;11.80;;;;;;;18.85;84.49;100506.52;1696959;84;21088;-83
2021/07/27 01:39:41;;;;;;;26.65;18.10;;;;;;;18.89;84.43;100502.70;1696779;84;21139;-87
2021/07/27 01:42:12;;;;;;;29.02;18.30;;;;;;;18.89;84.88;100500.03;1697234;84;21193;-85
2021/07/27 01:44:46;;;;;;;30.88;18.45;;;;;;;18.88;85.09;100495.63;1697160;84;21022;-83
2021/07/27 01:47:21;;;;;;;29.23;17.57;;;;;;;18.85;85.11;100498.52;1696478;84;22228;-82
2021/07/27 01:49:50;;;;;;;29.42;17.55;;;;;;;18.84;84.65;100496.78;1696962;84;21580;-81
2021/07/27 01:52:23;;;;;;;31.25;18.20;;;;;;;18.85;84.96;100501.19;1696352;84;21064;-83
2021/07/27 01:54:54;;;;;;;29.67;17.87;;;;;;;18.87;84.67;100496.61;1696616;84;21053;-83
2021/07/27 01:57:23;;;;;;;23.57;16.12;;;;;;;18.85;84.81;100489.17;1696583;84;21148;-81
2021/07/27 02:00:04;;;;;;;20.30;14.28;;;;;;;18.89;85.09;100493.81;1696571;84;21068;-82
2021/07/27 02:02:33;;;;;;;24.32;16.80;;;;;;;18.88;85.11;100492.12;1696371;84;21159;-82
2021/07/27 02:05:00;;;;;;;24.18;17.42;;;;;;;18.87;84.40;100493.94;1696338;83;21089;-81
2021/07/27 02:07:27;;;;;;;28.20;18.35;;;;;;;18.86;84.81;100498.42;1696429;83;21050;-81
2021/07/27 02:10:00;;;;;;;29.40;17.20;;;;;;;18.86;84.97;100492.20;1696226;84;21639;-81
2021/07/27 02:12:24;;;;;;;33.58;18.70;;;;;;;18.86;85.21;100493.09;1698205;83;21575;-80
2021/07/27 02:15:07;;;;;;;26.27;18.50;;;;;;;18.89;85.24;100493.36;1697217;83;21789;-80
2021/07/27 02:17:34;;;;;;;28.38;18.20;;;;;;;18.89;85.02;100494.70;1696444;84;21033;-79
2021/07/27 02:20:03;;;;;;;30.12;19.02;;;;;;;18.90;84.65;100491.05;1696615;84;21068;-81
2021/07/27 02:22:33;;;;;;;34.43;19.35;;;;;;;18.94;85.10;100496.58;1696501;84;21116;-81
2021/07/27 02:25:02;;;;;;;23.57;18.42;;;;;;;18.94;84.59;100493.91;1696553;84;21119;-82
2021/07/27 02:27:29;;;;;;;26.48;18.82;;;;;;;18.96;84.86;100493.33;1697090;84;21483;-85
2021/07/27 02:29:58;;;;;;;32.10;18.05;;;;;;;19.00;85.17;100492.17;1708654;83;21037;-85
2021/07/27 02:32:25;;;;;;;28.00;18.55;;;;;;;19.03;85.14;100496.45;1725922;83;21060;-89
2021/07/27 02:34:52;;;;;;;27.67;18.23;;;;;;;19.05;84.89;100492.72;1726100;82;21006;-91
2021/07/27 02:37:19;;;;;;;27.27;16.00;;;;;;;19.08;85.41;100488.50;1728993;80;21021;-89
2021/07/27 02:39:46;;;;;;;21.77;15.95;;;;;;;19.12;84.99;100487.83;1728260;83;21625;-88
2021/07/27 02:42:13;;;;;;;26.20;17.80;;;;;;;19.15;85.14;100486.77;1726050;82;21101;-85
2021/07/27 02:44:41;;;;;;;27.20;18.10;;;;;;;19.19;85.03;100482.94;1725723;82;21093;-84
2021/07/27 02:47:09;;;;;;;19.65;14.00;;;;;;;19.22;84.70;100485.39;1725613;83;21065;-85
2021/07/27 02:49:36;;;;;;;23.62;17.27;;;;;;;19.26;84.52;100495.76;1725964;83;21085;-85
2021/07/27 02:52:04;;;;;;;31.95;19.50;;;;;;;19.30;83.81;100485.70;1725506;83;21744;-86
2021/07/27 02:54:37;;;;;;;27.50;18.37;;;;;;;19.37;84.58;100489.70;1725726;83;21544;-88
2021/07/27 02:57:04;;;;;;;27.60;18.23;;;;;;;19.44;84.69;100487.44;1725635;82;21610;-84
2021/07/27 02:59:31;;;;;;;28.90;18.32;;;;;;;19.48;84.39;100483.12;1725758;83;21057;-81
2021/07/27 03:01:59;;;;;;;31.80;19.45;;;;;;;19.56;84.35;100488.44;1726265;83;21065;-82
2021/07/27 03:04:26;;;;;;;34.58;19.30;;;;;;;19.63;85.04;100491.06;1726849;81;22265;-82
2021/07/27 03:06:53;;;;;;;26.05;17.05;;;;;;;19.75;84.20;100486.22;1726595;81;21097;-81
2021/07/27 03:09:24;;;;;;;24.10;17.12;;;;;;;19.88;84.31;100495.09;1725707;83;21049;-81
2021/07/27 03:11:52;;;;;;;27.07;17.92;;;;;;;20.00;83.72;100481.83;1725444;83;21032;-81
2021/07/27 03:14:19;;;;;;;28.00;18.82;;;;;;;20.16;82.90;100478.92;1720797;82;22166;-85
2021/07/27 03:16:46;;;;;;;17.17;11.10;;;;;;;20.27;82.88;100477.19;1720407;83;21186;-83
2021/07/27 03:19:15;;;;;;;25.55;17.30;;;;;;;20.37;81.81;100468.50;1719959;83;21096;-84
2021/07/27 03:21:42;;;;;;;30.80;18.00;;;;;;;20.46;81.26;100477.19;1720158;82;21065;-81
2021/07/27 03:24:09;;;;;;;27.30;17.10;;;;;;;20.54;81.08;100473.45;1719988;83;21654;-81
2021/07/27 03:26:36;;;;;;;25.95;15.23;;;;;;;20.63;80.64;100470.63;1719985;83;21103;-82
2021/07/27 03:29:07;;;;;;;21.25;11.30;;;;;;;20.71;79.60;100481.14;1719958;83;21512;-83
2021/07/27 03:31:34;;;;;;;24.00;14.73;;;;;;;20.78;78.49;100476.69;1720294;83;21132;-83
2021/07/27 03:34:01;;;;;;;25.05;15.32;;;;;;;20.85;77.30;100480.61;1719779;83;21078;-80
2021/07/27 03:36:30;;;;;;;26.87;16.48;;;;;;;20.93;76.56;100479.53;1714003;83;21060;-82
2021/07/27 03:38:57;;;;;;;29.57;16.97;;;;;;;21.00;77.98;100489.30;1706608;84;21556;-80
2021/07/27 03:41:25;;;;;;;22.90;15.32;;;;;;;21.06;77.62;100487.52;1709742;83;21198;-77
2021/07/27 03:43:53;;;;;;;32.88;18.27;;;;;;;21.08;77.42;100478.39;1708166;83;21014;-76
2021/07/27 03:46:20;;;;;;;23.45;17.37;;;;;;;21.12;77.62;100485.72;1712643;82;21046;-76
2021/07/27 03:48:47;;;;;;;29.18;17.42;;;;;;;21.16;77.71;100480.48;1712056;83;21077;-76
2021/07/27 03:51:14;;;;;;;23.38;16.82;;;;;;;21.22;77.82;100477.84;1659468;85;21079;-77
2021/07/27 03:53:41;;;;;;;28.70;16.17;;;;;;;21.29;77.25;100469.70;1710065;83;21601;-75
2021/07/27 03:56:11;;;;;;;20.48;13.43;;;;;;;21.36;75.87;100472.27;1711413;83;21080;-76
2021/07/27 03:58:43;;;;;;;24.30;16.05;;;;;;;21.42;74.54;100465.15;1704982;83;21566;-75
2021/07/27 04:01:10;;;;;;;19.37;14.65;;;;;;;21.48;73.85;100467.33;1708210;83;21614;-76
2021/07/27 04:03:37;;;;;;;25.30;14.55;;;;;;;21.55;74.03;100471.23;1709714;82;21572;-75
2021/07/27 04:06:05;;;;;;;24.32;15.20;;;;;;;21.67;73.14;100468.58;1711914;82;21534;-76
2021/07/27 04:08:32;;;;;;;28.07;15.10;;;;;;;21.84;72.00;100462.77;1705714;83;21109;-77
2021/07/27 04:11:04;;;;;;;29.75;15.08;;;;;;;22.00;71.57;100465.08;1707019;83;21096;-78
2021/07/27 04:13:32;;;;;;;23.47;15.05;;;;;;;22.04;69.43;100469.23;1709546;83;22031;-75
2021/07/27 04:16:03;;;;;;;18.85;14.90;;;;;;;22.05;69.95;100468.73;1710675;83;21106;-75
2021/07/27 04:18:30;;;;;;;25.92;16.02;;;;;;;22.03;69.80;100469.34;1712149;83;21561;-76
2021/07/27 04:21:01;;;;;;;23.45;15.43;;;;;;;22.03;69.84;100460.80;1704397;83;21081;-77
2021/07/27 04:23:28;;;;;;;33.10;16.10;;;;;;;22.06;70.13;100463.23;1705343;83;21065;-77
2021/07/27 04:25:55;;;;;;;22.75;14.53;;;;;;;22.13;69.56;100467.62;1710151;83;21057;-75
2021/07/27 04:28:22;;;;;;;29.67;14.47;;;;;;;22.17;69.36;100463.72;1710195;83;21085;-72
2021/07/27 04:30:50;;;;;;;25.95;14.90;;;;;;;22.23;69.26;100467.30;1710785;83;21199;-75
2021/07/27 04:33:17;;;;;;;24.23;14.93;;;;;;;22.44;69.50;100466.53;1710726;83;21061;-76
2021/07/27 04:35:45;;;;;;;23.85;14.53;;;;;;;22.61;68.50;100460.16;1712400;83;21148;-74
2021/07/27 04:38:12;;;;;;;21.87;15.15;;;;;;;22.79;67.44;100457.75;1718637;83;21057;-72
2021/07/27 04:40:39;;;;;;;22.90;13.00;;;;;;;23.11;66.46;100451.55;1718360;82;21114;-72
2021/07/27 04:43:06;;;;;;;20.50;12.10;;;;;;;23.58;64.44;100453.84;1717077;83;21109;-73
2021/07/27 04:45:33;;;;;;;20.05;12.60;;;;;;;24.06;62.54;100447.87;1714678;82;21081;-73
2021/07/27 04:48:00;;;;;;;24.70;13.45;;;;;;;24.54;62.48;100449.02;1715434;82;21152;-73
2021/07/27 04:50:27;;;;;;;23.07;13.48;;;;;;;25.01;60.63;100451.91;1719800;83;21033;-74
2021/07/27 04:53:05;;;;;;;19.12;13.25;;;;;;;25.36;59.14;100451.83;1719101;83;21093;-74
2021/07/27 04:55:31;;;;;;;21.17;11.90;;;;;;;25.68;58.41;100448.27;1716457;83;21181;-71
2021/07/27 04:57:58;;;;;;;21.02;12.55;;;;;;;26.03;56.93;100447.25;1719324;83;21069;-72
2021/07/27 05:00:25;;;;;;;21.90;12.15;;;;;;;26.40;56.25;100448.53;1714412;83;21100;-73
2021/07/27 05:02:52;;;;;;;21.17;11.22;;;;;;;26.75;53.18;100449.59;1719188;82;21113;-74
2021/07/27 05:05:19;;;;;;;20.72;11.25;;;;;;;27.00;51.95;100446.11;1718325;83;21516;-72
2021/07/27 05:07:46;;;;;;;18.42;11.50;;;;;;;27.26;51.51;100452.09;1714437;83;21120;-73
2021/07/27 05:10:14;;;;;;;24.23;11.40;;;;;;;27.46;50.24;100437.05;1717048;83;21652;-73
2021/07/27 05:12:41;;;;;;;19.67;10.90;;;;;;;27.65;49.43;100436.81;1711351;82;21624;-72
2021/07/27 05:15:09;;;;;;;21.73;10.82;;;;;;;27.90;48.40;100438.34;1719746;83;21049;-72
2021/07/27 05:17:44;;;;;;;16.60;10.18;;;;;;;28.12;47.42;100443.69;1719594;81;21033;-71
2021/07/27 05:20:13;;;;;;;20.80;9.90;;;;;;;28.29;47.25;100442.72;1713255;82;21156;-72
2021/07/27 05:22:40;;;;;;;19.87;9.68;;;;;;;28.35;46.60;100438.53;1715604;83;20990;-72
2021/07/27 05:25:09;;;;;;;16.07;10.00;;;;;;;28.41;46.42;100437.84;1719386;82;21097;-72
2021/07/27 05:27:36;;;;;;;22.55;10.55;;;;;;;28.58;46.03;100434.20;1719477;82;21061;-73
2021/07/27 05:30:04;;;;;;;15.65;9.20;;;;;;;28.79;46.29;100432.88;1717373;83;21600;-73
2021/07/27 05:32:31;;;;;;;22.52;10.50;;;;;;;28.98;44.26;100427.12;1719319;82;21319;-73
2021/07/27 05:34:58;;;;;;;22.58;10.30;;;;;;;29.17;44.22;100435.95;1719683;83;22206;-73
2021/07/27 05:37:25;;;;;;;18.00;9.68;;;;;;;29.31;43.17;100435.30;1715475;82;21105;-73
2021/07/27 05:39:52;;;;;;;15.23;8.50;;;;;;;29.42;42.84;100436.27;1711980;82;21050;-73
2021/07/27 05:42:19;;;;;;;13.58;9.38;;;;;;;29.62;43.15;100441.33;1712105;83;21050;-73
2021/07/27 05:44:46;;;;;;;17.32;9.05;;;;;;;29.78;42.25;100438.60;1711439;83;21827;-73
2021/07/27 05:47:13;;;;;;;20.52;9.53;;;;;;;29.63;42.66;100438.94;1710973;82;21070;-73
2021/07/27 05:49:40;;;;;;;14.93;9.75;;;;;;;29.48;42.38;100446.44;1711915;83;21494;-73
2021/07/27 05:52:11;;;;;;;20.50;9.63;;;;;;;29.26;43.48;100440.36;1711533;83;21137;-72
2021/07/27 05:54:36;;;;;;;14.28;9.25;;;;;;;29.03;43.96;100445.11;1711651;82;21070;-74
2021/07/27 05:57:04;;;;;;;13.28;9.10;;;;;;;28.98;44.16;100442.03;1709879;82;21155;-74
2021/07/27 05:59:31;;;;;;;18.02;8.75;;;;;;;29.00;43.94;100444.06;1709742;82;21045;-75
2021/07/27 06:01:58;;;;;;;17.87;9.65;;;;;;;28.98;43.55;100439.83;1710312;82;21313;-75
2021/07/27 06:04:25;;;;;;;14.80;9.25;;;;;;;28.98;43.62;100437.96;1710907;82;21126;-75
2021/07/27 06:06:52;;;;;;;14.60;9.85;;;;;;;29.09;43.71;100440.05;1710751;83;21084;-75
2021/07/27 06:09:20;;;;;;;18.05;9.28;;;;;;;29.22;43.20;100430.89;1707429;82;21093;-74
2021/07/27 06:11:47;;;;;;;21.85;10.55;;;;;;;29.31;43.17;100435.78;1710749;82;21080;-75
2021/07/27 06:14:13;;;;;;;16.02;9.80;;;;;;;29.49;43.51;100440.50;1709780;83;21057;-76
2021/07/27 06:16:40;;;;;;;22.58;10.28;;;;;;;29.65;42.90;100439.62;1707883;83;21046;-74
2021/07/27 06:19:08;;;;;;;20.92;10.23;;;;;;;29.77;42.13;100432.85;1709369;83;21524;-74
2021/07/27 06:21:38;;;;;;;14.55;9.38;;;;;;;29.87;42.35;100433.48;1709253;82;21093;-77
2021/07/27 06:24:07;;;;;;;16.12;9.40;;;;;;;29.82;41.91;100435.88;1711266;82;21042;-78
2021/07/27 06:26:36;;;;;;;16.95;10.65;;;;;;;29.83;42.98;100440.28;1711730;82;21034;-77
2021/07/27 06:29:04;;;;;;;15.10;10.20;;;;;;;29.95;43.27;100442.61;1708477;83;21074;-78
2021/07/27 06:31:32;;;;;;;21.20;11.57;;;;;;;29.97;42.56;100435.14;1710231;82;21030;-76
2021/07/27 06:33:58;;;;;;;15.88;10.68;;;;;;;29.86;43.43;100437.72;1708848;83;21479;-76
2021/07/27 06:36:27;;;;;;;15.70;10.15;;;;;;;29.90;42.96;100435.84;1709909;83;21626;-77
2021/07/27 06:38:56;;;;;;;17.95;11.05;;;;;;;29.98;43.06;100434.11;1712290;82;21050;-72
2021/07/27 06:41:23;;;;;;;15.85;10.15;;;;;;;30.15;42.59;100439.81;1712058;82;21517;-75
2021/07/27 06:43:52;;;;;;;14.35;9.38;;;;;;;30.28;41.58;100441.48;1710406;83;21065;-73
2021/07/27 06:46:21;;;;;;;14.43;9.45;;;;;;;30.38;41.04;100439.06;1709358;83;21144;-73
2021/07/27 06:48:48;;;;;;;14.60;9.40;;;;;;;30.53;40.80;100435.92;1708740;83;21694;-73
2021/07/27 06:51:16;;;;;;;12.90;9.00;;;;;;;30.66;39.48;100425.28;1706795;83;21070;-73
2021/07/27 06:53:45;;;;;;;18.52;8.95;;;;;;;30.82;39.34;100434.36;1709468;83;21045;-74
2021/07/27 06:56:12;;;;;;;15.20;8.35;;;;;;;31.05;39.30;100432.49;1710751;83;21101;-73
2021/07/27 06:58:41;;;;;;;17.98;9.43;;;;;;;31.13;38.61;100439.76;1711049;83;21123;-72
2021/07/27 07:01:10;;;;;;;13.30;8.55;;;;;;;31.11;38.64;100442.66;1709827;82;21006;-74
2021/07/27 07:03:41;;;;;;;15.32;8.93;;;;;;;31.13;37.91;100441.95;1709278;82;21141;-72
2021/07/27 07:06:09;;;;;;;15.13;8.53;;;;;;;31.21;38.42;100439.67;1708629;83;21098;-73
2021/07/27 07:08:36;;;;;;;13.35;7.85;;;;;;;31.16;36.75;100438.02;1709325;83;21492;-72
2021/07/27 07:11:04;;;;;;;14.98;9.10;;;;;;;31.18;37.29;100437.84;1711493;83;21097;-74
2021/07/27 07:13:32;;;;;;;12.00;8.90;;;;;;;31.31;37.71;100432.11;1705811;83;21509;-72
2021/07/27 07:15:58;;;;;;;13.72;8.28;;;;;;;31.31;37.71;100432.11;1707182;83;21065;-72
2021/07/27 07:18:25;;;;;;;16.67;8.85;;;;;;;31.54;36.93;100428.48;1708952;83;21087;-71
2021/07/27 07:20:52;;;;;;;11.00;8.43;;;;;;;31.84;36.56;100429.86;1709098;83;21018;-76
2021/07/27 07:23:20;;;;;;;13.00;8.23;;;;;;;31.97;35.80;100428.19;1708731;82;21804;-73
2021/07/27 07:25:49;;;;;;;14.65;7.85;;;;;;;32.18;35.76;100432.02;1703180;83;21100;-72
2021/07/27 07:28:16;;;;;;;14.85;7.53;;;;;;;32.21;35.42;100433.02;1710714;83;21128;-73
2021/07/27 07:30:43;;;;;;;18.37;8.63;;;;;;;32.24;35.16;100432.63;1700286;83;20999;-76
2021/07/27 07:33:12;;;;;;;13.22;8.28;;;;;;;32.28;35.44;100435.30;1643992;87;21093;-70
2021/07/27 07:35:38;;;;;;;17.80;7.95;;;;;;;32.10;35.97;100429.41;1707033;83;21241;-70
2021/07/27 07:38:05;;;;;;;13.50;8.43;;;;;;;32.15;35.98;100432.41;1709037;83;21069;-72
2021/07/27 07:40:32;;;;;;;15.40;7.60;;;;;;;32.30;35.27;100431.87;1708072;83;21514;-72
2021/07/27 07:43:00;;;;;;;17.95;7.75;;;;;;;32.53;35.31;100433.59;1710063;83;21065;-70
2021/07/27 07:45:27;;;;;;;12.78;8.23;;;;;;;32.63;35.16;100430.58;1710947;83;21050;-72
2021/07/27 07:47:54;;;;;;;16.65;8.43;;;;;;;32.45;34.57;100428.25;1708273;83;21503;-73
2021/07/27 07:50:21;;;;;;;12.18;7.40;;;;;;;32.38;35.19;100423.56;1703929;83;21010;-72
2021/07/27 07:53:01;;;;;;;18.00;8.13;;;;;;;32.31;34.86;100425.89;1712151;83;21042;-72
2021/07/27 07:55:29;;;;;;;12.28;7.75;;;;;;;32.39;34.37;100426.63;1712463;83;21098;-72
2021/07/27 07:57:57;;;;;;;19.02;8.48;;;;;;;32.42;34.79;100422.67;1712578;82;22252;-71
2021/07/27 08:00:24;;;;;;;18.27;8.65;;;;;;;32.49;34.31;100424.95;1712408;83;21777;-72
2021/07/27 08:02:52;;;;;;;19.95;8.60;;;;;;;32.51;33.92;100419.31;1712439;82;21003;-72
2021/07/27 08:05:20;;;;;;;14.47;7.03;;;;;;;32.52;34.94;100409.59;1712479;83;21093;-71
2021/07/27 08:07:47;;;;;;;16.52;7.40;;;;;;;32.62;31.78;100407.06;1712737;83;21603;-72
2021/07/27 08:10:14;;;;;;;18.42;7.60;;;;;;;32.52;32.33;100418.30;1708348;82;21041;-71
2021/07/27 08:12:43;;;;;;;17.32;6.83;;;;;;;32.68;32.85;100413.95;1709796;82;21133;-72
2021/07/27 08:15:10;;;;;;;17.60;7.35;;;;;;;33.01;31.45;100413.41;1709992;83;21556;-71
2021/07/27 08:17:37;;;;;;;22.73;7.42;;;;;;;32.89;31.28;100413.09;1711642;83;21612;-72
2021/07/27 08:20:06;;;;;;;14.75;6.35;;;;;;;32.48;30.89;100416.42;1711938;82;21126;-73
2021/07/27 08:22:38;;;;;;;13.03;6.70;;;;;;;32.45;30.95;100410.01;1712709;83;21101;-77
2021/07/27 08:25:18;;;;;;;19.10;7.25;;;;;;;32.53;31.31;100414.02;1712344;83;21636;-75
2021/07/27 08:27:43;;;;;;;22.55;7.20;;;;;;;32.65;31.30;100410.26;1712732;82;21082;-73
2021/07/27 08:30:15;;;;;;;13.75;6.97;;;;;;;32.33;31.61;100411.03;1710288;83;21049;-75
2021/07/27 08:32:47;;;;;;;14.90;7.25;;;;;;;32.35;32.17;100412.22;1708929;83;21046;-75
2021/07/27 08:35:15;;;;;;;14.87;7.83;;;;;;;32.62;32.15;100407.90;1712317;83;21105;-74
2021/07/27 08:37:42;;;;;;;13.83;7.25;;;;;;;32.93;31.68;100406.74;1714039;82;21125;-75
2021/07/27 08:40:10;;;;;;;14.18;7.40;;;;;;;33.13;30.77;100410.52;1719977;83;21025;-74
2021/07/27 08:42:41;;;;;;;22.17;8.45;;;;;;;33.10;31.19;100410.05;1720318;81;21489;-74
2021/07/27 08:45:09;;;;;;;17.70;7.42;;;;;;;33.00;32.15;100407.64;1719708;83;21536;-74
2021/07/27 08:47:36;;;;;;;16.60;7.60;;;;;;;32.92;31.97;100407.77;1720305;82;21580;-74
2021/07/27 08:52:46;;;;;;;18.95;8.13;;;;;;;32.88;30.23;100395.58;1789093;79;22960;-74
2021/07/27 08:55:15;;;;;;;20.10;7.53;;;;;;;33.02;31.02;100390.56;1753079;81;21048;-74
2021/07/27 08:57:55;;;;;;;15.23;7.70;;;;;;;33.25;30.74;100393.60;1749146;81;21508;-74
2021/07/27 09:00:24;;;;;;;17.30;7.83;;;;;;;33.31;30.91;100392.78;1740500;80;21084;-75
2021/07/27 09:02:51;;;;;;;13.48;7.28;;;;;;;33.31;30.98;100390.05;1727892;81;21056;-75
2021/07/27 09:05:18;;;;;;;17.48;8.43;;;;;;;33.29;31.09;100389.41;1693318;84;21566;-76
2021/07/27 09:07:45;;;;;;;13.78;6.60;;;;;;;33.48;31.36;100375.59;1703478;83;21017;-75
2021/07/27 09:10:20;;;;;;;17.42;7.30;;;;;;;33.81;30.46;100379.88;1696717;83;21113;-72
2021/07/27 09:13:04;;;;;;;15.38;6.28;;;;;;;33.74;29.87;100381.75;1661267;84;21123;-72
2021/07/27 09:15:38;;;;;;;11.10;6.15;;;;;;;33.32;30.31;100372.66;1680431;85;21054;-72
2021/07/27 09:18:09;;;;;;;9.83;6.17;;;;;;;33.02;30.27;100381.01;1690749;84;21117;-72
2021/07/27 09:20:39;;;;;;;;;;;;;;;32.92;31.33;100382.72;1681111;84;21112;-71
2021/07/27 09:23:27;;;;;;;22.37;6.53;;;;;;;32.91;31.13;100376.09;1677624;85;21889;-72
2021/07/27 09:25:56;;;;;;;15.55;7.53;;;;;;;33.01;29.34;100386.13;1679426;84;21080;-72
2021/07/27 09:28:23;;;;;;;14.30;5.92;;;;;;;32.89;29.69;100387.71;1684991;84;21049;-73
2021/07/27 09:30:59;;;;;;;8.70;6.20;;;;;;;32.38;29.99;100386.77;1685959;84;21576;-73
2021/07/27 09:33:31;;;;;;;10.45;5.72;;;;;;;32.23;30.11;100381.88;1680920;84;21100;-72
2021/07/27 09:35:58;;;;;;;16.67;5.92;;;;;;;32.26;30.25;100384.23;1678374;85;21101;-72
2021/07/27 09:38:34;;;;;;;12.25;5.67;;;;;;;32.32;30.31;100379.35;1682548;84;21060;-74
2021/07/27 09:41:05;;;;;;;29.92;7.50;;;;;;;32.48;29.42;100376.06;1724566;83;21076;-72
2021/07/27 09:43:32;;;;;;;17.15;6.40;;;;;;;32.58;30.39;100372.55;1693213;84;21025;-71
2021/07/27 09:46:01;;;;;;;14.43;5.92;;;;;;;32.57;29.56;100374.94;1693214;84;21108;-73
2021/07/27 09:48:29;;;;;;;13.38;5.83;;;;;;;32.65;29.39;100381.62;1672409;84;21138;-72
2021/07/27 09:50:58;;;;;;;10.10;5.60;;;;;;;32.70;29.43;100372.34;1697058;83;21121;-72
2021/07/27 09:53:25;;;;;;;11.03;5.65;;;;;;;32.74;30.62;100370.91;1700018;84;21085;-71
2021/07/27 09:55:52;;;;;;;13.38;7.72;;;;;;;33.02;29.98;100364.64;1688871;84;21037;-75
2021/07/27 09:58:21;;;;;;;12.53;6.40;;;;;;;33.25;30.10;100366.31;1690638;84;21105;-73
2021/07/27 10:00:57;;;;;;;11.40;6.45;;;;;;;33.58;30.92;100363.80;1705175;83;21929;-76
2021/07/27 10:03:26;;;;;;;13.95;6.80;;;;;;;33.61;30.28;100354.70;1695093;83;21085;-77
2021/07/27 10:06:00;;;;;;;15.25;5.55;;;;;;;33.55;30.78;100356.83;1691311;83;21145;-74
2021/07/27 10:08:33;;;;;;;13.32;6.10;;;;;;;33.68;30.15;100360.16;1687775;84;22158;-73
2021/07/27 10:11:12;;;;;;;15.03;6.47;;;;;;;33.71;30.08;100353.48;1676221;84;21099;-74
2021/07/27 10:13:46;;;;;;;12.82;6.17;;;;;;;33.88;29.09;100352.60;1697428;83;21155;-75
2021/07/27 10:16:22;;;;;;;16.67;6.00;;;;;;;33.55;29.54;100352.73;1703014;83;21133;-75
2021/07/27 10:18:49;;;;;;;15.35;6.65;;;;;;;33.28;29.81;100344.91;1707183;83;21113;-76
2021/07/27 10:21:24;;;;;;;16.00;6.37;;;;;;;33.15;29.86;100343.45;1704750;83;21282;-75
2021/07/27 10:24:13;;;;;;;14.00;6.10;;;;;;;33.42;29.65;100344.47;1678051;85;21080;-75
2021/07/27 10:26:41;;;;;;;10.63;6.30;;;;;;;33.27;29.20;100360.11;1707354;83;21135;-75
2021/07/27 10:29:08;;;;;;;14.58;6.67;;;;;;;33.15;29.65;100340.22;1704255;84;21097;-76
2021/07/27 10:31:43;;;;;;;13.20;6.05;;;;;;;33.50;29.53;100336.13;1708556;83;21112;-74
2021/07/27 10:34:12;;;;;;;18.77;7.20;;;;;;;33.71;29.22;100345.30;1705677;83;21058;-75
2021/07/27 10:36:44;;;;;;;17.23;6.87;;;;;;;33.66;29.48;100335.48;1711335;83;21047;-75
2021/07/27 10:39:14;;;;;;;12.30;6.40;;;;;;;33.80;28.96;100335.34;1708019;82;21823;-75
2021/07/27 10:41:53;;;;;;;12.18;6.42;;;;;;;34.00;28.96;100333.20;1699530;83;21113;-74
2021/07/27 10:44:22;;;;;;;25.50;7.03;;;;;;;34.03;29.46;100324.08;1709158;83;21077;-75
2021/07/27 10:46:51;;;;;;;17.90;6.17;;;;;;;34.22;29.06;100325.73;1672117;84;21082;-76
2021/07/27 10:49:25;;;;;;;20.65;6.60;;;;;;;34.20;28.82;100340.12;1675800;84;21049;-76
2021/07/27 10:51:54;;;;;;;18.12;7.00;;;;;;;33.79;29.03;100336.91;1652990;83;62141;-74
2021/07/27 10:54:29;;;;;;;13.98;6.33;;;;;;;33.41;29.50;100326.42;1612149;87;21074;-74
2021/07/27 10:57:04;;;;;;;13.22;6.28;;;;;;;33.13;29.91;100325.94;1624289;87;21096;-74
2021/07/27 10:59:32;;;;;;;13.75;6.95;;;;;;;33.01;30.14;100316.56;1639343;87;21089;-76
2021/07/27 11:01:59;;;;;;;13.00;6.55;;;;;;;32.95;30.42;100318.74;1604559;88;21118;-75
2021/07/27 11:04:31;;;;;;;14.80;6.42;;;;;;;32.99;30.32;100314.55;1607651;88;21981;-76
2021/07/27 11:07:17;;;;;;;17.40;6.65;;;;;;;33.23;30.06;100316.02;1602416;89;21086;-76
2021/07/27 11:09:58;;;;;;;15.20;6.42;;;;;;;33.38;29.05;100311.78;1631993;87;21076;-76
2021/07/27 11:12:41;;;;;;;12.07;6.55;;;;;;;33.53;29.13;100307.05;1625648;87;21087;-75
2021/07/27 11:15:14;;;;;;;14.78;6.33;;;;;;;33.67;28.91;100309.88;1629317;87;21566;-75
2021/07/27 11:17:52;;;;;;;15.28;6.92;;;;;;;33.74;29.12;100313.47;1604437;87;21131;-76
2021/07/27 11:20:27;;;;;;;17.25;6.37;;;;;;;33.68;29.47;100311.55;1624560;87;21082;-76
2021/07/27 11:22:56;;;;;;;20.30;6.40;;;;;;;33.11;29.59;100308.92;1609013;89;21123;-74
2021/07/27 11:25:25;;;;;;;11.35;6.08;;;;;;;32.78;30.63;100308.63;1635185;87;21049;-76
2021/07/27 11:27:52;;;;;;;15.28;6.12;;;;;;;32.91;30.87;100301.92;1601194;89;21087;-75
2021/07/27 11:30:22;;;;;;;21.97;6.28;;;;;;;33.03;30.29;100310.39;1624407;87;21879;-72
2021/07/27 11:32:50;;;;;;;13.53;6.37;;;;;;;33.02;30.09;100297.80;1631952;87;21310;-74
2021/07/27 11:35:22;;;;;;;19.50;6.70;;;;;;;33.02;30.53;100293.72;1635863;87;21723;-74
2021/07/27 11:38:05;;;;;;;14.80;6.30;;;;;;;32.89;30.73;100290.89;1610656;87;21127;-75
2021/07/27 11:40:32;;;;;;;29.37;7.25;;;;;;;32.71;30.00;100292.73;1615864;88;21113;-75
2021/07/27 11:43:06;;;;;;;21.33;6.85;;;;;;;32.70;29.78;100304.17;1634346;87;21151;-74
2021/07/27 11:45:39;;;;;;;16.87;5.58;;;;;;;32.79;29.12;100294.80;1632851;87;21081;-75